createdAt,value
2018-07-01T00:00:20.807Z,31.54
2018-07-01T00:02:49.006Z,32.60
2018-07-01T00:05:17.183Z,33.04
2018-07-01T00:07:45.386Z,32.44
2018-07-01T00:10:13.554Z,32.28
2018-07-01T00:12:41.721Z,33.01
2018-07-01T00:15:10.038Z,32.75
2018-07-01T00:17:38.210Z,33.45
2018-07-01T00:20:07.518Z,33.28
2018-07-01T00:22:35.922Z,32.36
2018-07-01T00:25:04.155Z,32.37
2018-07-01T00:27:32.343Z,33.29
2018-07-01T00:30:00.527Z,33.08
2018-07-01T00:32:28.726Z,33.66
2018-07-01T00:34:56.902Z,32.26
2018-07-01T00:37:25.066Z,32.85
2018-07-01T00:39:53.230Z,32.49
2018-07-01T00:42:21.427Z,33.02
2018-07-01T00:44:49.602Z,34.07
2018-07-01T00:47:17.754Z,33.13
2018-07-01T00:49:45.931Z,33.63
2018-07-01T00:52:14.109Z,34.26
2018-07-01T00:54:42.274Z,34.21
2018-07-01T00:57:10.478Z,33.60
2018-07-01T00:59:38.649Z,33.97
2018-07-01T01:02:06.833Z,34.20
2018-07-01T01:04:34.996Z,34.21
2018-07-01T01:07:03.162Z,34.03
2018-07-01T01:09:31.323Z,33.19
2018-07-01T01:11:59.491Z,34.21
2018-07-01T01:14:27.642Z,33.74
2018-07-01T01:16:55.786Z,34.44
2018-07-01T01:19:23.942Z,33.42
2018-07-01T01:21:52.115Z,35.42
2018-07-01T01:24:20.271Z,34.58
2018-07-01T01:26:48.446Z,34.31
2018-07-01T01:29:16.602Z,34.76
2018-07-01T01:31:44.751Z,34.63
2018-07-01T01:34:12.926Z,34.58
2018-07-01T01:36:42.255Z,34.91
2018-07-01T01:39:13.514Z,34.81
2018-07-01T01:41:51.388Z,34.91
2018-07-01T01:44:32.494Z,34.63
2018-07-01T01:47:03.019Z,34.92
2018-07-01T01:49:36.390Z,34.96
2018-07-01T01:53:09.431Z,35.54
2018-07-01T01:56:11.873Z,35.10
2018-07-01T01:58:47.541Z,35.25
2018-07-01T02:01:28.383Z,34.86
2018-07-01T02:04:05.075Z,35.23
2018-07-01T02:06:37.442Z,35.45
2018-07-01T02:09:10.559Z,35.25
2018-07-01T02:11:42.286Z,35.72
2018-07-01T02:14:14.562Z,35.61
2018-07-01T02:16:47.338Z,34.96
2018-07-01T02:19:15.538Z,36.00
2018-07-01T02:21:43.746Z,35.57
2018-07-01T02:24:17.442Z,36.73
2018-07-01T02:26:45.619Z,36.45
2018-07-01T02:29:13.810Z,36.65
2018-07-01T02:31:41.986Z,36.96
2018-07-01T02:34:10.147Z,36.29
2018-07-01T02:36:38.317Z,36.63
2018-07-01T02:39:08.477Z,37.71
2018-07-01T02:41:36.762Z,37.63
2018-07-01T02:44:04.952Z,37.25
2018-07-01T02:46:33.319Z,37.51
2018-07-01T02:49:01.588Z,37.50
2018-07-01T02:51:29.757Z,37.40
2018-07-01T02:53:57.926Z,37.89
2018-07-01T02:56:26.097Z,37.99
2018-07-01T02:58:54.283Z,37.66
2018-07-01T03:01:22.467Z,38.21
2018-07-01T03:03:50.642Z,38.72
2018-07-01T03:06:18.806Z,37.65
2018-07-01T03:08:46.975Z,38.08
2018-07-01T03:11:15.148Z,38.29
2018-07-01T03:13:43.306Z,38.24
2018-07-01T03:16:11.458Z,37.98
2018-07-01T03:18:39.635Z,37.50
2018-07-01T03:21:07.812Z,38.00
2018-07-01T03:23:35.982Z,38.23
2018-07-01T03:26:04.132Z,38.09
2018-07-01T03:28:32.290Z,38.38
2018-07-01T03:31:00.469Z,39.41
2018-07-01T03:33:28.646Z,39.21
2018-07-01T03:35:56.802Z,39.31
2018-07-01T03:38:25.007Z,39.46
2018-07-01T03:40:53.159Z,38.89
2018-07-01T03:43:21.319Z,38.72
2018-07-01T03:45:49.482Z,37.83
2018-07-01T03:48:17.638Z,38.23
2018-07-01T03:50:45.806Z,39.04
2018-07-01T03:53:13.970Z,38.70
2018-07-01T03:55:42.139Z,39.26
2018-07-01T03:58:10.369Z,39.02
2018-07-01T04:00:38.519Z,39.34
2018-07-01T04:03:06.683Z,39.33
2018-07-01T04:05:34.856Z,38.91
2018-07-01T04:08:03.030Z,37.98
2018-07-01T04:10:31.218Z,38.37
2018-07-01T04:12:59.381Z,38.55
2018-07-01T04:15:27.558Z,38.27
2018-07-01T04:17:55.725Z,38.58
2018-07-01T04:20:23.902Z,38.34
2018-07-01T04:22:52.060Z,37.79
2018-07-01T04:25:20.219Z,38.08
2018-07-01T04:27:48.386Z,37.27
2018-07-01T04:30:16.598Z,37.64
2018-07-01T04:32:44.785Z,37.88
2018-07-01T04:35:12.954Z,38.13
2018-07-01T04:37:41.119Z,37.93
2018-07-01T04:40:09.302Z,37.83
2018-07-01T04:42:37.464Z,38.16
2018-07-01T04:45:05.810Z,39.07
2018-07-01T04:47:33.974Z,38.66
2018-07-01T04:50:02.155Z,39.56
2018-07-01T04:52:30.348Z,37.93
2018-07-01T04:54:58.551Z,38.89
2018-07-01T04:57:26.675Z,38.05
2018-07-01T04:59:54.834Z,38.96
2018-07-01T05:02:23.267Z,38.55
2018-07-01T05:04:51.574Z,38.17
2018-07-01T05:07:19.755Z,38.07
2018-07-01T05:09:47.910Z,38.52
2018-07-01T05:12:16.084Z,38.23
2018-07-01T05:14:44.259Z,37.67
2018-07-01T05:17:12.493Z,37.78
2018-07-01T05:19:40.613Z,38.03
2018-07-01T05:22:08.791Z,38.34
2018-07-01T05:24:36.964Z,38.99
2018-07-01T05:27:05.302Z,37.54
2018-07-01T05:29:33.477Z,38.14
2018-07-01T05:32:01.655Z,38.06
2018-07-01T05:34:29.827Z,38.74
2018-07-01T05:36:57.978Z,37.64
2018-07-01T05:39:26.155Z,37.78
2018-07-01T05:41:54.350Z,37.71
2018-07-01T05:44:22.762Z,38.11
2018-07-01T05:46:51.155Z,38.42
2018-07-01T05:49:19.353Z,37.92
2018-07-01T05:51:47.543Z,36.73
2018-07-01T05:54:15.726Z,37.68
2018-07-01T05:56:44.366Z,37.84
2018-07-01T05:59:12.594Z,37.57
2018-07-01T06:01:40.851Z,38.52
2018-07-01T06:04:09.139Z,37.65
2018-07-01T06:06:37.314Z,38.01
2018-07-01T06:09:08.047Z,37.56
2018-07-01T06:11:36.215Z,38.40
2018-07-01T06:14:05.238Z,37.39
2018-07-01T06:16:33.540Z,38.03
2018-07-01T06:19:01.654Z,37.40
2018-07-01T06:21:29.843Z,37.74
2018-07-01T06:23:58.011Z,36.61
2018-07-01T06:26:26.170Z,37.35
2018-07-01T06:28:54.337Z,35.72
2018-07-01T06:31:22.539Z,36.90
2018-07-01T06:33:50.706Z,37.01
2018-07-01T06:36:18.874Z,36.65
2018-07-01T06:38:47.023Z,36.62
2018-07-01T06:41:15.195Z,35.73
2018-07-01T06:43:43.346Z,36.24
2018-07-01T06:46:11.526Z,36.33
2018-07-01T06:48:40.602Z,36.21
2018-07-01T06:51:08.966Z,35.72
2018-07-01T06:53:37.122Z,36.45
2018-07-01T06:56:05.679Z,37.49
2018-07-01T06:58:34.074Z,35.00
2018-07-01T07:01:02.243Z,35.11
2018-07-01T07:03:30.458Z,33.87
2018-07-01T07:05:58.638Z,34.66
2018-07-01T07:08:26.790Z,34.68
2018-07-01T07:10:54.951Z,36.56
2018-07-01T07:13:23.106Z,35.39
2018-07-01T07:15:51.278Z,35.67
2018-07-01T07:18:19.642Z,34.44
2018-07-01T07:20:47.807Z,35.16
2018-07-01T07:23:15.964Z,36.22
2018-07-01T07:25:44.175Z,34.76
2018-07-01T07:28:12.330Z,34.77
2018-07-01T07:30:40.518Z,35.23
2018-07-01T07:33:08.695Z,35.93
2018-07-01T07:35:36.858Z,35.17
2018-07-01T07:38:05.055Z,33.70
2018-07-01T07:40:33.206Z,33.47
2018-07-01T07:43:01.370Z,35.12
2018-07-01T07:45:29.530Z,34.64
2018-07-01T07:47:57.838Z,34.39
2018-07-01T07:50:25.990Z,35.15
2018-07-01T07:52:54.197Z,33.97
2018-07-01T07:55:22.419Z,35.25
2018-07-01T07:57:50.650Z,34.93
2018-07-01T08:00:19.797Z,35.19
2018-07-01T08:02:48.229Z,33.84
2018-07-01T08:05:16.394Z,33.20
2018-07-01T08:07:44.568Z,32.18
2018-07-01T08:10:12.739Z,33.11
2018-07-01T08:12:41.028Z,34.55
2018-07-01T08:15:09.179Z,34.91
2018-07-01T08:17:37.368Z,34.47
2018-07-01T08:20:05.558Z,33.89
2018-07-01T08:22:33.722Z,32.76
2018-07-01T08:25:01.924Z,34.14
2018-07-01T08:27:30.087Z,33.57
2018-07-01T08:29:58.261Z,33.51
2018-07-01T08:32:26.446Z,33.62
2018-07-01T08:34:54.642Z,32.66
2018-07-01T08:37:22.981Z,32.85
2018-07-01T08:39:51.126Z,31.88
2018-07-01T08:42:21.966Z,31.35
2018-07-01T08:44:50.958Z,31.93
2018-07-01T08:47:19.285Z,33.72
2018-07-01T08:49:48.475Z,31.74
2018-07-01T08:52:16.816Z,32.04
2018-07-01T08:54:45.089Z,32.83
2018-07-01T08:57:14.706Z,32.45
2018-07-01T08:59:43.390Z,30.11
2018-07-01T09:02:11.659Z,32.17
2018-07-01T09:04:40.155Z,32.13
2018-07-01T09:07:08.327Z,31.69
2018-07-01T09:09:36.494Z,31.70
2018-07-01T09:12:04.699Z,31.64
2018-07-01T09:14:32.862Z,31.20
2018-07-01T09:17:01.068Z,28.63
2018-07-01T09:19:29.218Z,29.88
2018-07-01T09:21:57.400Z,30.08
2018-07-01T09:24:25.820Z,28.33
2018-07-01T09:26:54.166Z,29.58
2018-07-01T09:29:22.364Z,28.59
2018-07-01T09:31:51.746Z,27.86
2018-07-01T09:34:22.025Z,27.92
2018-07-01T09:36:50.659Z,28.54
2018-07-01T09:39:19.715Z,28.26
2018-07-01T09:41:49.120Z,28.16
2018-07-01T09:44:17.319Z,27.31
2018-07-01T09:46:45.497Z,28.47
2018-07-01T09:49:13.838Z,29.25
2018-07-01T09:51:42.040Z,27.16
2018-07-01T09:54:10.218Z,27.14
2018-07-01T09:56:38.395Z,26.18
2018-07-01T09:59:06.578Z,27.28
2018-07-01T10:01:34.803Z,26.38
2018-07-01T10:04:02.998Z,26.41
2018-07-01T10:06:31.179Z,26.00
2018-07-01T10:08:59.552Z,27.72
2018-07-01T10:11:28.042Z,26.11
2018-07-01T10:13:56.290Z,27.22
2018-07-01T10:16:24.446Z,27.22
2018-07-01T10:18:52.664Z,25.67
2018-07-01T10:21:20.766Z,23.94
2018-07-01T10:23:48.954Z,23.99
2018-07-01T10:26:17.103Z,24.81
2018-07-01T10:28:58.654Z,25.31
2018-07-01T10:31:26.815Z,25.96
2018-07-01T10:33:55.040Z,25.71
2018-07-01T10:36:23.298Z,26.30
2018-07-01T10:38:51.492Z,23.87
2018-07-01T10:41:19.714Z,25.17
2018-07-01T10:43:47.933Z,23.82
2018-07-01T10:46:16.111Z,25.81
2018-07-01T10:48:44.329Z,25.01
2018-07-01T10:51:12.568Z,23.19
2018-07-01T10:53:40.703Z,25.77
2018-07-01T10:56:08.898Z,24.52
2018-07-01T10:58:37.074Z,24.68
2018-07-01T11:01:05.354Z,24.01
2018-07-01T11:03:33.550Z,25.31
2018-07-01T11:06:01.823Z,24.57
2018-07-01T11:08:29.921Z,23.78
2018-07-01T11:10:58.097Z,23.52
2018-07-01T11:13:26.254Z,22.19
2018-07-01T11:15:54.427Z,21.85
2018-07-01T11:18:22.622Z,24.53
2018-07-01T11:20:50.825Z,24.06
2018-07-01T11:23:18.983Z,22.20
2018-07-01T11:25:47.159Z,23.45
2018-07-01T11:28:15.354Z,21.71
2018-07-01T11:30:43.519Z,22.26
2018-07-01T11:33:11.670Z,22.24
2018-07-01T11:35:39.849Z,22.26
2018-07-01T11:38:08.081Z,21.90
2018-07-01T11:40:36.210Z,21.64
2018-07-01T11:43:04.499Z,21.50
2018-07-01T11:45:32.675Z,22.29
2018-07-01T11:48:00.826Z,23.39
2018-07-01T11:50:29.010Z,23.42
2018-07-01T11:52:57.166Z,22.34
2018-07-01T11:55:25.362Z,24.09
2018-07-01T11:57:53.514Z,21.45
2018-07-01T12:00:21.678Z,22.67
2018-07-01T12:02:49.858Z,22.99
2018-07-01T12:05:18.293Z,22.53
2018-07-01T12:07:46.474Z,23.42
2018-07-01T12:10:15.424Z,21.59
2018-07-01T12:12:43.602Z,22.38
2018-07-01T12:15:11.807Z,22.39
2018-07-01T12:17:39.978Z,21.47
2018-07-01T12:20:08.146Z,24.61
2018-07-01T12:22:36.354Z,22.12
2018-07-01T12:25:04.722Z,23.94
2018-07-01T12:27:32.906Z,20.29
2018-07-01T12:30:01.104Z,22.25
2018-07-01T12:32:29.279Z,21.71
2018-07-01T12:34:57.446Z,22.38
2018-07-01T12:37:25.626Z,22.45
2018-07-01T12:39:53.814Z,23.37
2018-07-01T12:42:22.046Z,21.49
2018-07-01T12:44:50.174Z,22.29
2018-07-01T12:47:18.345Z,21.90
2018-07-01T12:49:46.510Z,23.41
2018-07-01T12:52:14.679Z,22.17
2018-07-01T12:54:43.549Z,21.76
2018-07-01T12:57:11.886Z,22.34
2018-07-01T12:59:40.075Z,21.97
2018-07-01T13:02:08.394Z,21.43
2018-07-01T13:04:36.554Z,22.97
2018-07-01T13:07:04.790Z,21.29
2018-07-01T13:09:32.998Z,22.40
2018-07-01T13:12:01.208Z,23.00
2018-07-01T13:14:29.315Z,21.17
2018-07-01T13:16:57.471Z,21.21
2018-07-01T13:19:25.621Z,22.12
2018-07-01T13:21:53.794Z,23.17
2018-07-01T13:24:21.958Z,20.57
2018-07-01T13:26:50.102Z,21.77
2018-07-01T13:29:18.274Z,21.21
2018-07-01T13:31:46.434Z,22.38
2018-07-01T13:34:14.586Z,21.76
2018-07-01T13:36:42.751Z,21.82
2018-07-01T13:39:11.686Z,23.98
2018-07-01T13:41:40.054Z,21.67
2018-07-01T13:44:08.399Z,22.52
2018-07-01T13:46:36.550Z,22.04
2018-07-01T13:49:05.063Z,22.00
2018-07-01T13:51:33.214Z,23.87
2018-07-01T13:54:01.382Z,22.14
2018-07-01T13:56:29.583Z,21.16
2018-07-01T13:58:57.858Z,23.79
2018-07-01T14:01:26.338Z,22.22
2018-07-01T14:03:54.502Z,22.95
2018-07-01T14:06:22.694Z,21.49
2018-07-01T14:08:50.859Z,23.59
2018-07-01T14:11:19.034Z,23.02
2018-07-01T14:13:47.187Z,22.22
2018-07-01T14:16:15.358Z,25.17
2018-07-01T14:18:43.514Z,21.94
2018-07-01T14:21:11.674Z,21.30
2018-07-01T14:23:39.836Z,23.11
2018-07-01T14:26:07.987Z,22.49
2018-07-01T14:28:36.146Z,23.06
2018-07-01T14:31:04.303Z,22.94
2018-07-01T14:33:32.446Z,22.15
2018-07-01T14:36:00.666Z,23.87
2018-07-01T14:38:28.811Z,24.32
2018-07-01T14:40:56.995Z,22.88
2018-07-01T14:43:25.134Z,22.70
2018-07-01T14:45:53.301Z,22.59
2018-07-01T14:48:21.450Z,22.59
2018-07-01T14:50:49.603Z,22.56
2018-07-01T14:53:17.897Z,23.74
2018-07-01T14:55:46.047Z,23.30
2018-07-01T14:58:14.241Z,23.87
2018-07-01T15:00:42.418Z,23.22
2018-07-01T15:03:10.587Z,23.55
2018-07-01T15:05:38.751Z,24.78
2018-07-01T15:08:07.150Z,23.43
2018-07-01T15:10:35.419Z,22.67
2018-07-01T15:13:03.590Z,24.67
2018-07-01T15:15:31.759Z,24.86
2018-07-01T15:17:59.910Z,23.63
2018-07-01T15:20:28.074Z,23.43
2018-07-01T15:22:56.223Z,23.49
2018-07-01T15:25:24.384Z,24.19
2018-07-01T15:27:52.542Z,23.47
2018-07-01T15:30:20.720Z,24.59
2018-07-01T15:32:48.882Z,23.89
2018-07-01T15:35:17.042Z,24.79
2018-07-01T15:37:45.214Z,23.55
2018-07-01T15:40:13.451Z,23.99
2018-07-01T15:42:41.542Z,23.44
2018-07-01T15:45:09.735Z,23.13
2018-07-01T15:47:37.893Z,23.22
2018-07-01T15:50:06.065Z,24.70
2018-07-01T15:52:34.225Z,24.75
2018-07-01T15:55:02.386Z,23.85
2018-07-01T15:57:30.571Z,22.77
2018-07-01T15:59:58.733Z,23.32
2018-07-01T16:02:26.950Z,23.63
2018-07-01T16:04:55.071Z,23.54
2018-07-01T16:07:23.251Z,23.10
2018-07-01T16:09:51.435Z,25.36
2018-07-01T16:12:19.601Z,23.96
2018-07-01T16:14:47.784Z,23.91
2018-07-01T16:17:15.946Z,23.10
2018-07-01T16:19:44.118Z,25.24
2018-07-01T16:22:12.271Z,24.14
2018-07-01T16:24:45.865Z,24.27
2018-07-01T16:27:16.826Z,24.09
2018-07-01T16:29:45.600Z,25.03
2018-07-01T16:32:13.762Z,23.59
2018-07-01T16:34:41.922Z,24.19
2018-07-01T16:37:10.118Z,24.09
2018-07-01T16:39:38.278Z,24.62
2018-07-01T16:42:06.466Z,24.42
2018-07-01T16:44:34.655Z,24.37
2018-07-01T16:47:02.815Z,23.72
2018-07-01T16:49:31.053Z,24.37
2018-07-01T16:51:59.195Z,24.15
2018-07-01T16:54:27.527Z,23.01
2018-07-01T16:56:55.698Z,24.56
2018-07-01T16:59:24.023Z,24.71
2018-07-01T17:01:52.396Z,24.41
2018-07-01T17:04:20.935Z,25.10
2018-07-01T17:06:49.410Z,24.03
2018-07-01T17:09:17.669Z,24.37
2018-07-01T17:11:46.022Z,23.97
2018-07-01T17:14:14.205Z,23.53
2018-07-01T17:16:42.367Z,23.44
2018-07-01T17:19:10.566Z,25.03
2018-07-01T17:21:38.736Z,24.39
2018-07-01T17:24:06.901Z,24.09
2018-07-01T17:26:35.063Z,23.94
2018-07-01T17:29:03.260Z,24.42
2018-07-01T17:31:36.833Z,24.83
2018-07-01T17:34:05.125Z,24.42
2018-07-01T17:36:33.294Z,24.64
2018-07-01T17:39:01.447Z,25.15
2018-07-01T17:41:29.650Z,24.94
2018-07-01T17:43:57.866Z,26.03
2018-07-01T17:46:26.154Z,24.74
2018-07-01T17:48:54.372Z,24.30
2018-07-01T17:51:22.963Z,24.63
2018-07-01T17:53:54.483Z,24.78
2018-07-01T17:56:23.225Z,25.94
2018-07-01T17:58:51.857Z,25.30
2018-07-01T18:01:20.053Z,25.51
2018-07-01T18:03:48.640Z,25.22
2018-07-01T18:06:16.935Z,25.40
2018-07-01T18:08:45.150Z,26.11
2018-07-01T18:11:13.364Z,25.76
2018-07-01T18:13:41.668Z,25.94
2018-07-01T18:16:09.914Z,25.74
2018-07-01T18:18:38.287Z,26.18
2018-07-01T18:21:06.519Z,27.53
2018-07-01T18:24:02.968Z,26.98
2018-07-01T18:26:02.988Z,26.92
2018-07-01T18:28:41.524Z,27.17
2018-07-01T18:30:59.592Z,27.44
2018-07-01T18:33:27.814Z,27.34
2018-07-01T18:35:56.014Z,27.79
2018-07-01T18:38:24.211Z,28.09
2018-07-01T18:40:52.751Z,27.23
2018-07-01T18:43:20.599Z,26.76
2018-07-01T18:45:48.784Z,26.94
2018-07-01T18:48:16.962Z,26.37
2018-07-01T18:50:45.147Z,27.35
2018-07-01T18:53:13.324Z,28.07
2018-07-01T18:55:41.598Z,27.45
2018-07-01T18:58:09.798Z,27.50
2018-07-01T19:00:37.966Z,28.30
2018-07-01T19:03:06.168Z,28.05
2018-07-01T19:05:34.438Z,28.17
2018-07-01T19:08:02.602Z,29.46
2018-07-01T19:10:30.776Z,29.67
2018-07-01T19:12:58.942Z,29.62
2018-07-01T19:15:27.129Z,29.97
2018-07-01T19:17:55.278Z,30.46
2018-07-01T19:20:23.437Z,30.25
2018-07-01T19:22:51.623Z,31.12
2018-07-01T19:25:19.760Z,30.31
2018-07-01T19:27:47.926Z,30.44
2018-07-01T19:30:16.122Z,31.54
2018-07-01T19:32:44.296Z,30.51
2018-07-01T19:35:12.459Z,30.75
2018-07-01T19:37:40.812Z,29.97
2018-07-01T19:40:09.046Z,31.06
2018-07-01T19:42:37.345Z,31.04
2018-07-01T19:45:05.966Z,31.37
2018-07-01T19:47:34.298Z,31.17
2018-07-01T19:50:02.462Z,30.86
2018-07-01T19:52:30.695Z,31.52
2018-07-01T19:54:58.805Z,31.89
2018-07-01T19:57:27.262Z,31.91
2018-07-01T19:59:55.433Z,31.91
2018-07-01T20:02:23.786Z,32.14
2018-07-01T20:04:51.962Z,31.69
2018-07-01T20:07:20.162Z,31.91
2018-07-01T20:09:48.330Z,32.18
2018-07-01T20:12:16.559Z,31.72
2018-07-01T20:14:44.693Z,31.56
2018-07-01T20:17:12.857Z,32.35
2018-07-01T20:19:41.041Z,32.64
2018-07-01T20:22:09.451Z,33.00
2018-07-01T20:24:37.610Z,31.60
2018-07-01T20:27:05.782Z,31.22
2018-07-01T20:29:33.942Z,31.40
2018-07-01T20:32:02.139Z,31.49
2018-07-01T20:34:30.322Z,31.82
2018-07-01T20:36:58.526Z,31.79
2018-07-01T20:39:26.706Z,31.67
2018-07-01T20:41:54.878Z,31.93
2018-07-01T20:44:23.054Z,31.62
2018-07-01T20:46:51.219Z,31.29
2018-07-01T20:49:19.445Z,31.87
2018-07-01T20:51:47.569Z,31.10
2018-07-01T20:54:15.731Z,31.18
2018-07-01T20:56:43.898Z,31.44
2018-07-01T20:59:12.062Z,31.24
2018-07-01T21:01:40.226Z,30.69
2018-07-01T21:04:08.386Z,30.83
2018-07-01T21:06:36.566Z,31.17
2018-07-01T21:09:07.372Z,31.55
2018-07-01T21:11:35.525Z,30.69
2018-07-01T21:14:03.702Z,31.45
2018-07-01T21:16:31.862Z,30.92
2018-07-01T21:19:00.025Z,30.88
2018-07-01T21:21:28.202Z,31.15
2018-07-01T21:23:56.354Z,31.10
2018-07-01T21:26:24.518Z,31.54
2018-07-01T21:28:52.883Z,30.82
2018-07-01T21:31:21.044Z,30.85
2018-07-01T21:33:49.203Z,30.96
2018-07-01T21:36:17.359Z,30.81
2018-07-01T21:38:45.521Z,31.22
2018-07-01T21:41:13.678Z,31.12
2018-07-01T21:43:41.838Z,30.90
2018-07-01T21:46:10.024Z,30.95
2018-07-01T21:48:38.174Z,31.52
2018-07-01T21:51:06.754Z,30.80
2018-07-01T21:53:34.925Z,31.76
2018-07-01T21:56:03.102Z,32.28
2018-07-01T21:58:31.254Z,32.15
2018-07-01T22:01:03.148Z,31.17
2018-07-01T22:03:31.362Z,31.73
2018-07-01T22:05:59.561Z,31.74
2018-07-01T22:08:27.751Z,32.03
2018-07-01T22:13:13.107Z,31.67
2018-07-01T22:15:52.550Z,32.00
2018-07-01T22:18:20.720Z,32.39
2018-07-01T22:20:48.922Z,31.72
2018-07-01T22:23:17.117Z,31.82
2018-07-01T22:25:45.278Z,32.54
2018-07-01T22:28:13.509Z,32.00
2018-07-01T22:30:41.666Z,31.40
2018-07-01T22:33:09.821Z,32.30
2018-07-01T22:35:38.006Z,32.06
2018-07-01T22:38:06.347Z,31.98
2018-07-01T22:40:34.526Z,32.76
2018-07-01T22:43:02.693Z,32.58
2018-07-01T22:45:30.867Z,31.99
2018-07-01T22:47:59.036Z,31.92
2018-07-01T22:50:27.202Z,32.01
2018-07-01T22:52:55.386Z,31.96
2018-07-01T22:55:23.564Z,32.19
2018-07-01T22:57:51.752Z,32.41
2018-07-01T23:00:19.903Z,32.34
2018-07-01T23:03:09.240Z,33.00
2018-07-01T23:05:37.410Z,32.71
2018-07-01T23:08:05.601Z,32.56
2018-07-01T23:10:33.868Z,33.57
2018-07-01T23:13:02.239Z,32.98
2018-07-01T23:15:30.429Z,33.20
2018-07-01T23:17:58.595Z,32.92
2018-07-01T23:20:26.865Z,33.81
2018-07-01T23:22:55.242Z,32.99
2018-07-01T23:25:23.414Z,33.03
2018-07-01T23:27:51.597Z,33.19
2018-07-01T23:30:19.766Z,33.48
2018-07-01T23:32:47.947Z,32.92
2018-07-01T23:35:16.128Z,33.01
2018-07-01T23:37:44.334Z,33.31
2018-07-01T23:40:12.666Z,33.24
2018-07-01T23:42:41.596Z,33.25
2018-07-01T23:45:11.780Z,33.10
2018-07-01T23:47:39.949Z,33.26
2018-07-01T23:50:08.437Z,33.44
2018-07-01T23:52:36.635Z,34.09
2018-07-01T23:55:04.998Z,33.45
2018-07-01T23:57:33.190Z,33.97
